Time;durP1;ratioP1;P1;durP2;ratioP2;P2;SDS_P1;SDS_P2;PMS_P1;PMS_P2;Temp;Humidity;BMP_temperature;BMP_pressure;BME280_temperature;BME280_humidity;BME280_pressure;Samples;Min_cycle;Max_cycle;Signal;HPM_P1;HPM_P2
2022/03/01 00:02:09;;;;;;;10.07;5.05;;;;;;;;;;5089355;28;20080;-60
2022/03/01 00:04:35;;;;;;;9.07;4.53;;;;;;;;;;5072821;28;20085;-59
2022/03/01 00:07:00;;;;;;;6.28;3.72;;;;;;;;;;5088948;28;20433;-59
2022/03/01 00:09:26;;;;;;;7.15;4.38;;;;;;;;;;5088445;28;20027;-60
2022/03/01 00:11:51;;;;;;;7.15;4.03;;;;;;;;;;5087944;28;20036;-60
2022/03/01 00:14:16;;;;;;;6.82;4.20;;;;;;;;;;5072678;28;21205;-59
2022/03/01 00:16:42;;;;;;;9.13;4.65;;;;;;;;;;5073257;28;20016;-60
2022/03/01 00:19:07;;;;;;;8.25;4.80;;;;;;;;;;5087852;28;20024;-60
2022/03/01 00:21:33;;;;;;;8.13;4.25;;;;;;;;;;5092428;28;20122;-60
2022/03/01 00:23:58;;;;;;;8.55;4.15;;;;;;;;;;5092002;28;20031;-58
2022/03/01 00:26:24;;;;;;;7.45;4.15;;;;;;;;;;5089866;28;20031;-59
2022/03/01 00:28:49;;;;;;;8.15;4.93;;;;;;;;;;5092096;28;20129;-59
2022/03/01 00:31:15;;;;;;;9.00;4.50;;;;;;;;;;5088745;28;20062;-60
2022/03/01 00:33:40;;;;;;;9.68;4.88;;;;;;;;;;5072202;28;20044;-60
2022/03/01 00:36:06;;;;;;;7.30;4.32;;;;;;;;;;5087589;28;20024;-60
2022/03/01 00:38:32;;;;;;;11.73;5.30;;;;;;;;;;5092796;28;20036;-61
2022/03/01 00:40:57;;;;;;;13.15;5.38;;;;;;;;;;5089214;28;20088;-60
2022/03/01 00:43:23;;;;;;;10.35;4.63;;;;;;;;;;5088098;28;20027;-60
2022/03/01 00:45:50;;;;;;;9.70;4.85;;;;;;;;;;5088765;28;20040;-60
2022/03/01 00:48:16;;;;;;;6.68;4.63;;;;;;;;;;5088114;28;20023;-59
2022/03/01 00:50:42;;;;;;;9.07;5.13;;;;;;;;;;5087675;28;20031;-60
2022/03/01 00:53:07;;;;;;;10.18;5.25;;;;;;;;;;5088857;28;20070;-59
2022/03/01 00:55:34;;;;;;;9.60;5.40;;;;;;;;;;5088475;28;20056;-60
2022/03/01 00:57:59;;;;;;;9.25;5.00;;;;;;;;;;5089006;28;20020;-60
2022/03/01 01:00:25;;;;;;;9.85;4.90;;;;;;;;;;5088852;28;20586;-60
2022/03/01 01:02:50;;;;;;;10.45;5.43;;;;;;;;;;5074445;28;20019;-60
2022/03/01 01:05:16;;;;;;;10.45;5.13;;;;;;;;;;5089619;28;20027;-60
2022/03/01 01:07:42;;;;;;;10.75;5.25;;;;;;;;;;5089129;28;20334;-60
2022/03/01 01:10:08;;;;;;;13.00;5.43;;;;;;;;;;5091145;28;20100;-60
2022/03/01 01:12:34;;;;;;;8.73;4.82;;;;;;;;;;5088780;28;20028;-60
2022/03/01 01:15:00;;;;;;;10.48;5.72;;;;;;;;;;5088430;28;20066;-60
2022/03/01 01:17:26;;;;;;;11.55;5.80;;;;;;;;;;5089899;28;20066;-60
2022/03/01 01:19:52;;;;;;;10.27;4.95;;;;;;;;;;5090100;28;20396;-59
2022/03/01 01:25:01;;;;;;;11.07;5.55;;;;;;;;;;5086893;28;20089;-58
2022/03/01 01:27:27;;;;;;;10.98;5.60;;;;;;;;;;5056475;28;20020;-58
2022/03/01 01:30:15;;;;;;;9.78;5.46;;;;;;;;;;2583220;28;10004062;-60
2022/03/01 01:32:42;;;;;;;9.35;5.35;;;;;;;;;;3685875;28;10001208;-56
2022/03/01 01:35:10;;;;;;;9.10;5.47;;;;;;;;;;5086139;28;20038;-60
2022/03/01 01:37:35;;;;;;;10.90;5.55;;;;;;;;;;5090553;28;20631;-60
2022/03/01 01:40:02;;;;;;;12.13;5.63;;;;;;;;;;5088504;28;20032;-60
2022/03/01 01:42:27;;;;;;;12.55;5.43;;;;;;;;;;5073508;28;20038;-60
2022/03/01 01:44:53;;;;;;;9.68;5.13;;;;;;;;;;5091458;28;20028;-59
2022/03/01 01:47:18;;;;;;;9.52;5.30;;;;;;;;;;5088548;28;20042;-59
2022/03/01 01:49:44;;;;;;;9.77;5.40;;;;;;;;;;5091410;28;20027;-57
2022/03/01 01:52:09;;;;;;;11.55;5.40;;;;;;;;;;5089166;28;20039;-60
2022/03/01 01:54:34;;;;;;;12.00;5.40;;;;;;;;;;5086857;28;20054;-62
2022/03/01 01:57:00;;;;;;;10.80;5.80;;;;;;;;;;5086889;28;20053;-59
2022/03/01 01:59:26;;;;;;;11.70;6.22;;;;;;;;;;5089205;28;20032;-59
2022/03/01 02:01:51;;;;;;;11.70;5.45;;;;;;;;;;5088569;28;20032;-59
2022/03/01 03:31:47;;;;;;;16.58;6.30;;;;;;;;;;699435;28;10002037;-59
2022/03/01 03:34:13;;;;;;;12.30;6.00;;;;;;;;;;5091857;28;20025;-56
2022/03/01 03:36:50;;;;;;;14.75;5.75;;;;;;;;;;2769889;28;10002326;-53
2022/03/01 03:39:16;;;;;;;15.15;7.20;;;;;;;;;;2983498;28;10001306;-58
2022/03/01 03:41:41;;;;;;;11.25;5.72;;;;;;;;;;5089095;28;20038;-57
2022/03/01 03:44:07;;;;;;;12.98;6.25;;;;;;;;;;5091234;28;21162;-56
2022/03/01 03:46:34;;;;;;;12.68;5.85;;;;;;;;;;5090221;28;20036;-60
2022/03/01 03:48:59;;;;;;;16.50;6.18;;;;;;;;;;5090270;28;20042;-60
2022/03/01 03:51:25;;;;;;;13.10;6.18;;;;;;;;;;5091704;28;20028;-57
2022/03/01 03:53:51;;;;;;;11.98;5.78;;;;;;;;;;5089956;28;20032;-58
2022/03/01 03:56:16;;;;;;;12.75;6.28;;;;;;;;;;5076547;28;20031;-59
2022/03/01 03:58:42;;;;;;;12.27;5.97;;;;;;;;;;5088917;28;20403;-60
2022/03/01 04:01:08;;;;;;;12.32;6.22;;;;;;;;;;5071686;28;20028;-58
2022/03/01 04:03:34;;;;;;;14.50;6.30;;;;;;;;;;5089243;28;20036;-61
2022/03/01 04:05:59;;;;;;;15.55;6.60;;;;;;;;;;5088144;28;20111;-59
2022/03/01 04:08:25;;;;;;;13.10;6.28;;;;;;;;;;5074334;28;20111;-58
2022/03/01 04:10:50;;;;;;;12.07;5.93;;;;;;;;;;5089823;28;20028;-57
2022/03/01 04:13:15;;;;;;;15.30;6.63;;;;;;;;;;5089691;28;20669;-58
2022/03/01 04:15:41;;;;;;;15.27;6.40;;;;;;;;;;5088742;28;20077;-60
2022/03/01 04:18:07;;;;;;;12.82;6.25;;;;;;;;;;5089964;28;20103;-59
2022/03/01 04:20:32;;;;;;;13.93;5.72;;;;;;;;;;5087762;28;20040;-59
2022/03/01 04:22:58;;;;;;;14.73;6.32;;;;;;;;;;5088743;28;20044;-58
2022/03/01 04:25:23;;;;;;;14.65;6.32;;;;;;;;;;5090421;28;20035;-58
2022/03/01 04:27:49;;;;;;;17.73;6.82;;;;;;;;;;5093660;28;20057;-60
2022/03/01 04:30:15;;;;;;;15.07;6.22;;;;;;;;;;5088194;28;20035;-59
2022/03/01 04:32:41;;;;;;;12.23;6.28;;;;;;;;;;5089984;28;20035;-59
2022/03/01 04:35:14;;;;;;;;;;;;;;;;;;5089095;28;20737;-59
2022/03/01 04:37:41;;;;;;;17.27;6.25;;;;;;;;;;5075866;28;19955;-59
2022/03/01 04:40:08;;;;;;;13.90;6.70;;;;;;;;;;5089344;28;20035;-57
2022/03/01 04:42:34;;;;;;;14.73;6.20;;;;;;;;;;5090056;28;20036;-57
2022/03/01 04:45:00;;;;;;;16.65;7.03;;;;;;;;;;5087746;28;20024;-57
2022/03/01 04:47:26;;;;;;;15.23;6.95;;;;;;;;;;5090153;28;20150;-59
2022/03/01 04:49:52;;;;;;;14.38;6.85;;;;;;;;;;5087665;28;20024;-60
2022/03/01 04:52:17;;;;;;;15.20;6.72;;;;;;;;;;5092821;28;20128;-57
2022/03/01 04:54:43;;;;;;;17.55;7.43;;;;;;;;;;5087607;28;20031;-58
2022/03/01 04:57:08;;;;;;;13.13;5.85;;;;;;;;;;5091452;28;20428;-59
2022/03/01 04:59:33;;;;;;;16.02;6.90;;;;;;;;;;5088235;28;20081;-58
2022/03/01 05:01:59;;;;;;;13.02;6.30;;;;;;;;;;5088624;28;20036;-60
2022/03/01 05:04:25;;;;;;;13.10;6.38;;;;;;;;;;5087546;28;20073;-58
2022/03/01 05:06:51;;;;;;;19.75;7.60;;;;;;;;;;5091536;28;20031;-58
2022/03/01 05:09:16;;;;;;;13.05;5.90;;;;;;;;;;5072800;28;20032;-58
2022/03/01 05:11:42;;;;;;;14.57;6.63;;;;;;;;;;5090413;28;20632;-59
2022/03/01 05:14:14;;;;;;;13.70;6.57;;;;;;;;;;5073450;28;20019;-59
2022/03/01 05:16:39;;;;;;;13.90;6.45;;;;;;;;;;5088617;28;20042;-57
2022/03/01 05:19:05;;;;;;;11.68;5.93;;;;;;;;;;5068822;28;20475;-59
2022/03/01 05:21:30;;;;;;;15.00;6.50;;;;;;;;;;5089087;28;20023;-59
2022/03/01 05:23:56;;;;;;;15.25;6.78;;;;;;;;;;5088284;28;20028;-59
2022/03/01 05:26:21;;;;;;;13.13;6.47;;;;;;;;;;5087380;28;20035;-58
2022/03/01 05:28:47;;;;;;;15.60;6.60;;;;;;;;;;5084445;28;20126;-59
2022/03/01 05:31:12;;;;;;;12.82;6.10;;;;;;;;;;5087479;28;20558;-59
2022/03/01 05:33:37;;;;;;;16.08;6.95;;;;;;;;;;5089981;28;20023;-59
2022/03/01 05:36:03;;;;;;;19.17;6.65;;;;;;;;;;5087971;28;21428;-59
2022/03/01 05:38:29;;;;;;;13.77;6.45;;;;;;;;;;5089227;28;20023;-58
2022/03/01 05:40:54;;;;;;;16.23;6.65;;;;;;;;;;5090011;28;20081;-58
2022/03/01 05:43:20;;;;;;;16.60;6.65;;;;;;;;;;5072615;28;20024;-59
2022/03/01 05:45:55;;;;;;;16.65;6.50;;;;;;;;;;3371187;28;10021452;-59
2022/03/01 05:48:21;;;;;;;15.55;6.93;;;;;;;;;;2279704;28;10001889;-57
2022/03/01 05:50:46;;;;;;;15.57;6.90;;;;;;;;;;5086672;28;20032;-57
2022/03/01 05:53:12;;;;;;;18.05;6.32;;;;;;;;;;5088953;28;20028;-58
2022/03/01 05:55:37;;;;;;;18.42;7.47;;;;;;;;;;5087105;28;20077;-59
2022/03/01 05:58:03;;;;;;;12.77;6.05;;;;;;;;;;5091555;28;20012;-59
2022/03/01 06:00:28;;;;;;;13.85;6.63;;;;;;;;;;5086888;28;20019;-54
2022/03/01 06:02:54;;;;;;;14.45;6.57;;;;;;;;;;5089301;28;20024;-59
2022/03/01 06:05:19;;;;;;;15.45;6.38;;;;;;;;;;5087569;28;20035;-59
2022/03/01 06:07:45;;;;;;;14.27;6.80;;;;;;;;;;5090155;28;20016;-59
2022/03/01 06:10:11;;;;;;;15.25;6.60;;;;;;;;;;5086687;28;20117;-59
2022/03/01 06:12:37;;;;;;;15.18;6.65;;;;;;;;;;5088625;28;20404;-58
2022/03/01 06:15:04;;;;;;;11.55;6.18;;;;;;;;;;5086433;28;20024;-56
2022/03/01 06:17:29;;;;;;;15.20;6.85;;;;;;;;;;5087365;28;20031;-58
2022/03/01 06:19:55;;;;;;;13.27;6.65;;;;;;;;;;5086945;28;20176;-60
2022/03/01 06:22:20;;;;;;;11.57;6.53;;;;;;;;;;5086390;28;20020;-60
2022/03/01 06:24:46;;;;;;;15.25;6.30;;;;;;;;;;5089439;28;20027;-58
2022/03/01 06:27:12;;;;;;;17.80;7.38;;;;;;;;;;5088881;28;20032;-58
2022/03/01 06:29:37;;;;;;;14.50;6.45;;;;;;;;;;5093041;28;20040;-57
2022/03/01 06:32:05;;;;;;;15.38;6.85;;;;;;;;;;5090514;28;20047;-58
2022/03/01 06:34:31;;;;;;;16.02;7.15;;;;;;;;;;5090882;28;20035;-58
2022/03/01 06:36:56;;;;;;;16.15;6.53;;;;;;;;;;5090528;28;20044;-58
2022/03/01 06:39:22;;;;;;;14.80;6.55;;;;;;;;;;5090736;28;20571;-59
2022/03/01 06:41:47;;;;;;;17.17;6.72;;;;;;;;;;5090458;28;20043;-58
2022/03/01 06:44:13;;;;;;;16.77;7.55;;;;;;;;;;5094999;28;20563;-58
2022/03/01 06:46:38;;;;;;;19.48;6.70;;;;;;;;;;5088638;28;20039;-58
2022/03/01 06:49:04;;;;;;;15.60;7.43;;;;;;;;;;5092156;28;20042;-56
2022/03/01 06:51:29;;;;;;;14.00;6.70;;;;;;;;;;5090505;28;20024;-58
2022/03/01 06:54:02;;;;;;;14.57;6.45;;;;;;;;;;5091193;28;20036;-56
2022/03/01 06:56:27;;;;;;;16.25;6.35;;;;;;;;;;5089124;28;20035;-57
2022/03/01 06:58:53;;;;;;;16.52;6.80;;;;;;;;;;5089168;28;20052;-58
2022/03/01 07:01:19;;;;;;;15.18;6.97;;;;;;;;;;5090207;28;20036;-59
2022/03/01 07:03:45;;;;;;;14.15;7.20;;;;;;;;;;5073863;28;20092;-57
2022/03/01 07:06:11;;;;;;;15.07;6.50;;;;;;;;;;5090132;28;20832;-58
2022/03/01 07:08:36;;;;;;;13.68;6.55;;;;;;;;;;5087543;28;20032;-60
2022/03/01 07:11:02;;;;;;;13.07;6.60;;;;;;;;;;5091528;28;20138;-58
2022/03/01 07:13:27;;;;;;;18.38;6.85;;;;;;;;;;5074704;28;20089;-58
2022/03/01 07:15:53;;;;;;;14.15;6.60;;;;;;;;;;5089677;28;20420;-55
2022/03/01 07:18:18;;;;;;;12.57;5.93;;;;;;;;;;5094212;28;20020;-57
2022/03/01 07:20:44;;;;;;;14.80;6.47;;;;;;;;;;5090062;28;20023;-55
2022/03/01 07:23:10;;;;;;;14.98;6.88;;;;;;;;;;5088530;28;20052;-60
2022/03/01 07:25:36;;;;;;;12.40;6.22;;;;;;;;;;5089582;28;20017;-59
2022/03/01 07:28:01;;;;;;;18.75;5.90;;;;;;;;;;5087423;28;20918;-59
2022/03/01 07:30:27;;;;;;;14.00;6.30;;;;;;;;;;5088769;28;20028;-58
2022/03/01 07:32:54;;;;;;;14.35;6.65;;;;;;;;;;5070936;28;20024;-57
2022/03/01 07:35:30;;;;;;;16.43;6.07;;;;;;;;;;3064474;28;10002605;-57
2022/03/01 07:37:56;;;;;;;15.30;6.03;;;;;;;;;;2630373;28;10001724;-61
2022/03/01 07:40:23;;;;;;;13.60;6.85;;;;;;;;;;5088684;28;21180;-58
2022/03/01 07:42:50;;;;;;;23.35;7.35;;;;;;;;;;5087691;28;20039;-59
2022/03/01 07:45:16;;;;;;;19.70;6.75;;;;;;;;;;5088218;28;20028;-58
2022/03/01 07:47:41;;;;;;;15.88;6.63;;;;;;;;;;5072385;28;20057;-58
2022/03/01 07:50:07;;;;;;;14.10;6.32;;;;;;;;;;5089342;28;20049;-56
2022/03/01 07:52:33;;;;;;;18.23;6.55;;;;;;;;;;5088509;28;20039;-58
2022/03/01 07:54:58;;;;;;;19.15;6.22;;;;;;;;;;5088991;28;20080;-58
2022/03/01 07:57:24;;;;;;;14.23;6.47;;;;;;;;;;5088507;28;20016;-56
2022/03/01 07:59:49;;;;;;;14.48;6.22;;;;;;;;;;5090186;28;20032;-58
2022/03/01 08:02:15;;;;;;;12.73;6.20;;;;;;;;;;5088393;28;20015;-57
2022/03/01 08:04:42;;;;;;;13.57;6.15;;;;;;;;;;5088931;28;20043;-57
2022/03/01 08:07:11;;;;;;;13.63;6.15;;;;;;;;;;5088460;28;20043;-57
2022/03/01 08:09:37;;;;;;;14.23;6.25;;;;;;;;;;5086464;28;20027;-58
2022/03/01 08:12:04;;;;;;;16.58;6.45;;;;;;;;;;5089928;28;20383;-57
2022/03/01 08:14:31;;;;;;;15.65;6.13;;;;;;;;;;5095187;28;20519;-55
2022/03/01 08:16:57;;;;;;;14.55;6.07;;;;;;;;;;5091358;28;20031;-58
2022/03/01 08:19:23;;;;;;;11.50;6.28;;;;;;;;;;5091623;28;20015;-58
2022/03/01 08:21:48;;;;;;;13.60;6.40;;;;;;;;;;5091094;28;20063;-58
2022/03/01 08:24:14;;;;;;;12.40;6.78;;;;;;;;;;5072078;28;20074;-58
2022/03/01 08:26:40;;;;;;;15.90;6.57;;;;;;;;;;5088900;28;20036;-57
2022/03/01 08:29:05;;;;;;;15.00;6.60;;;;;;;;;;5089525;28;20035;-58
2022/03/01 08:31:30;;;;;;;17.83;6.78;;;;;;;;;;5086980;28;20381;-58
2022/03/01 08:33:59;;;;;;;15.32;6.65;;;;;;;;;;5088967;28;20476;-57
2022/03/01 08:36:24;;;;;;;14.48;6.22;;;;;;;;;;5087468;28;20031;-56
2022/03/01 08:38:50;;;;;;;10.80;5.53;;;;;;;;;;5087512;28;20031;-58
2022/03/01 08:41:16;;;;;;;12.35;5.97;;;;;;;;;;5087064;28;20032;-59
2022/03/01 08:43:41;;;;;;;11.77;6.00;;;;;;;;;;5089293;28;20031;-56
2022/03/01 08:46:11;;;;;;;15.35;6.18;;;;;;;;;;5085860;28;20145;-60
2022/03/01 08:48:36;;;;;;;14.10;6.57;;;;;;;;;;5087225;28;20024;-58
2022/03/01 08:51:02;;;;;;;11.63;6.38;;;;;;;;;;5069705;28;20042;-59
2022/03/01 08:53:27;;;;;;;21.52;6.68;;;;;;;;;;5086734;28;20463;-58
2022/03/01 08:55:53;;;;;;;14.27;6.30;;;;;;;;;;5088632;28;20055;-57
2022/03/01 08:58:19;;;;;;;19.23;7.18;;;;;;;;;;5088454;28;20054;-57
2022/03/01 09:00:45;;;;;;;13.27;6.13;;;;;;;;;;5087480;28;20028;-60
2022/03/01 09:03:11;;;;;;;16.55;7.03;;;;;;;;;;5088900;28;20928;-58
2022/03/01 09:05:36;;;;;;;15.88;6.78;;;;;;;;;;5088385;28;20031;-57
2022/03/01 09:08:03;;;;;;;17.90;6.75;;;;;;;;;;5086894;28;20028;-58
2022/03/01 09:10:29;;;;;;;11.88;5.80;;;;;;;;;;5088189;28;20027;-60
2022/03/01 09:12:56;;;;;;;15.10;5.95;;;;;;;;;;5086488;28;20027;-55
2022/03/01 09:15:22;;;;;;;15.27;6.00;;;;;;;;;;5084547;28;20047;-60
2022/03/01 09:17:48;;;;;;;14.77;6.22;;;;;;;;;;5086881;28;20536;-57
2022/03/01 09:20:14;;;;;;;20.02;6.60;;;;;;;;;;5090122;28;20028;-59
2022/03/01 09:22:40;;;;;;;15.02;6.68;;;;;;;;;;5085840;28;20188;-58
2022/03/01 09:25:06;;;;;;;17.13;6.10;;;;;;;;;;5087980;28;20038;-58
2022/03/01 09:27:32;;;;;;;18.15;6.10;;;;;;;;;;5088605;28;20128;-59
2022/03/01 09:29:57;;;;;;;19.15;6.43;;;;;;;;;;5088556;28;20032;-59
2022/03/01 09:32:24;;;;;;;15.70;5.63;;;;;;;;;;5087445;28;20092;-57
2022/03/01 09:35:03;;;;;;;16.50;5.90;;;;;;;;;;4017837;28;10002014;-57
2022/03/01 09:37:32;;;;;;;14.35;6.53;;;;;;;;;;1751662;28;10002070;-57
2022/03/01 09:40:01;;;;;;;12.55;6.82;;;;;;;;;;5083367;28;20033;-58
2022/03/01 09:42:28;;;;;;;33.90;7.32;;;;;;;;;;5085305;28;20422;-57
2022/03/01 09:44:55;;;;;;;13.68;6.43;;;;;;;;;;5082998;28;20032;-59
2022/03/01 09:47:21;;;;;;;18.35;7.00;;;;;;;;;;5087642;28;20056;-56
2022/03/01 09:49:46;;;;;;;13.32;6.63;;;;;;;;;;5085007;28;20519;-59
2022/03/01 09:52:15;;;;;;;12.77;6.25;;;;;;;;;;5088035;28;20060;-59
2022/03/01 09:54:41;;;;;;;14.27;7.05;;;;;;;;;;5089067;28;20503;-57
2022/03/01 09:57:06;;;;;;;20.25;6.65;;;;;;;;;;5072806;28;20028;-58
2022/03/01 09:59:32;;;;;;;20.10;7.03;;;;;;;;;;5085210;28;20061;-58
2022/03/01 10:01:58;;;;;;;52.03;9.68;;;;;;;;;;5087843;28;20384;-57
2022/03/01 10:04:25;;;;;;;16.90;7.05;;;;;;;;;;5084564;28;20111;-58
2022/03/01 10:06:51;;;;;;;29.17;7.68;;;;;;;;;;5087692;28;20521;-58
2022/03/01 10:09:24;;;;;;;21.98;6.47;;;;;;;;;;5088004;28;20103;-58
2022/03/01 10:11:51;;;;;;;19.20;7.13;;;;;;;;;;5087481;28;20455;-58
2022/03/01 10:14:27;;;;;;;13.35;6.32;;;;;;;;;;5085093;28;20455;-54
2022/03/01 10:16:53;;;;;;;19.25;6.55;;;;;;;;;;5085683;28;20706;-55
2022/03/01 10:19:20;;;;;;;12.13;5.90;;;;;;;;;;5085838;28;20030;-58
2022/03/01 10:22:01;;;;;;;14.82;6.85;;;;;;;;;;5087612;28;20400;-58
2022/03/01 10:24:27;;;;;;;14.27;6.75;;;;;;;;;;5086251;28;20024;-58
2022/03/01 10:26:58;;;;;;;19.48;6.03;;;;;;;;;;5087097;28;20637;-58
2022/03/01 10:29:29;;;;;;;13.57;6.60;;;;;;;;;;5086955;28;20035;-58
2022/03/01 10:32:10;;;;;;;14.50;6.13;;;;;;;;;;5088085;28;20115;-57
2022/03/01 10:34:36;;;;;;;11.45;5.75;;;;;;;;;;5087185;28;20027;-57
2022/03/01 10:37:01;;;;;;;11.70;5.55;;;;;;;;;;5086770;28;20440;-58
2022/03/01 10:39:29;;;;;;;12.68;5.60;;;;;;;;;;5087464;28;20024;-57
2022/03/01 10:41:55;;;;;;;14.43;6.53;;;;;;;;;;5088859;28;20089;-56
2022/03/01 10:44:27;;;;;;;10.20;6.15;;;;;;;;;;5087107;28;20031;-59
2022/03/01 10:46:54;;;;;;;14.70;6.70;;;;;;;;;;5087978;28;20555;-58
2022/03/01 10:49:25;;;;;;;12.50;5.70;;;;;;;;;;5088987;28;20050;-55
2022/03/01 10:51:53;;;;;;;12.48;6.05;;;;;;;;;;5086859;28;20044;-58
2022/03/01 10:54:26;;;;;;;12.23;6.32;;;;;;;;;;5085468;28;20077;-56
2022/03/01 10:56:55;;;;;;;15.77;6.28;;;;;;;;;;5086504;28;20084;-57
2022/03/01 10:59:24;;;;;;;11.73;5.80;;;;;;;;;;5086002;28;20067;-57
2022/03/01 11:01:50;;;;;;;10.43;5.35;;;;;;;;;;5086299;28;20459;-58
2022/03/01 11:04:16;;;;;;;12.45;6.13;;;;;;;;;;5071932;28;20491;-57
2022/03/01 11:06:42;;;;;;;10.77;5.75;;;;;;;;;;5069016;28;20016;-58
2022/03/01 11:09:10;;;;;;;11.18;5.80;;;;;;;;;;5085873;28;20047;-57
2022/03/01 11:11:36;;;;;;;11.25;5.72;;;;;;;;;;5086050;28;20035;-56
2022/03/01 11:14:03;;;;;;;13.63;6.50;;;;;;;;;;5070866;28;20077;-57
2022/03/01 11:16:39;;;;;;;13.00;6.25;;;;;;;;;;5089707;28;20415;-57
2022/03/01 11:19:42;;;;;;;12.23;5.95;;;;;;;;;;5072610;28;20804;-56
2022/03/01 11:22:22;;;;;;;15.85;6.28;;;;;;;;;;5088619;28;20114;-58
2022/03/01 11:24:49;;;;;;;15.85;6.38;;;;;;;;;;5085854;28;20039;-58
2022/03/01 11:27:19;;;;;;;19.58;6.25;;;;;;;;;;5089614;28;20020;-55
2022/03/01 11:29:44;;;;;;;13.43;6.35;;;;;;;;;;5090423;28;20181;-54
2022/03/01 11:32:13;;;;;;;10.20;5.88;;;;;;;;;;5089217;28;20035;-57
2022/03/01 11:34:39;;;;;;;10.55;6.05;;;;;;;;;;5090052;28;20119;-57
2022/03/01 11:37:13;;;;;;;9.68;5.38;;;;;;;;;;5091261;28;20032;-58
2022/03/01 11:39:38;;;;;;;10.68;6.05;;;;;;;;;;5089228;28;20028;-59
2022/03/01 11:42:06;;;;;;;12.88;5.68;;;;;;;;;;5090913;28;20039;-59
2022/03/01 11:44:37;;;;;;;14.10;5.38;;;;;;;;;;5088241;28;20329;-58
2022/03/01 11:47:07;;;;;;;13.15;5.55;;;;;;;;;;5092012;28;20526;-57
2022/03/01 11:49:34;;;;;;;15.88;5.97;;;;;;;;;;5073028;28;20032;-58
2022/03/01 11:52:01;;;;;;;12.55;5.90;;;;;;;;;;5088177;28;20032;-57
2022/03/01 11:54:32;;;;;;;11.75;5.80;;;;;;;;;;5086850;28;20043;-58
2022/03/01 11:56:58;;;;;;;15.43;6.38;;;;;;;;;;5088202;28;20058;-58
2022/03/01 11:59:25;;;;;;;12.15;6.18;;;;;;;;;;5087900;28;20461;-61
2022/03/01 12:01:52;;;;;;;9.95;5.75;;;;;;;;;;5087470;28;20500;-58
2022/03/01 12:04:27;;;;;;;12.35;6.88;;;;;;;;;;5089231;28;20068;-57
2022/03/01 12:06:55;;;;;;;12.07;6.20;;;;;;;;;;5089491;28;20076;-59
2022/03/01 12:09:23;;;;;;;11.18;5.85;;;;;;;;;;5089537;28;20036;-57
2022/03/01 12:11:49;;;;;;;13.60;6.13;;;;;;;;;;5074235;28;20050;-58
2022/03/01 12:14:17;;;;;;;12.50;6.50;;;;;;;;;;5089818;28;20467;-59
2022/03/01 12:16:44;;;;;;;10.93;5.65;;;;;;;;;;5089640;28;20040;-58
2022/03/01 12:19:13;;;;;;;11.45;5.80;;;;;;;;;;5087480;28;20476;-58
2022/03/01 12:21:47;;;;;;;14.63;6.20;;;;;;;;;;5090044;28;20483;-58
2022/03/01 12:24:13;;;;;;;12.63;6.10;;;;;;;;;;5086666;28;20396;-57
2022/03/01 12:26:46;;;;;;;9.27;5.90;;;;;;;;;;5073663;28;20085;-58
2022/03/01 12:29:14;;;;;;;9.90;5.60;;;;;;;;;;5087756;28;20059;-58
2022/03/01 12:31:39;;;;;;;18.60;6.32;;;;;;;;;;5088338;28;20039;-59
2022/03/01 12:34:09;;;;;;;11.80;6.28;;;;;;;;;;5086082;28;20028;-57
2022/03/01 12:36:39;;;;;;;10.68;5.85;;;;;;;;;;5088839;28;20039;-58
2022/03/01 12:39:12;;;;;;;12.25;5.97;;;;;;;;;;5086735;28;20592;-56
2022/03/01 12:41:38;;;;;;;10.27;5.53;;;;;;;;;;5088109;28;20068;-58
2022/03/01 12:44:07;;;;;;;11.73;5.70;;;;;;;;;;5087002;28;20059;-58
2022/03/01 12:46:33;;;;;;;12.07;5.53;;;;;;;;;;5086085;28;20102;-59
2022/03/01 12:49:01;;;;;;;12.25;5.70;;;;;;;;;;5087797;28;20491;-58
2022/03/01 12:51:28;;;;;;;9.27;5.20;;;;;;;;;;5088957;28;20028;-58
2022/03/01 12:53:59;;;;;;;10.70;5.53;;;;;;;;;;5044893;28;20665;-58
2022/03/01 12:56:31;;;;;;;7.70;5.15;;;;;;;;;;1484356;28;10023704;-55
2022/03/01 12:59:20;;;;;;;11.52;5.55;;;;;;;;;;4034355;28;10000986;-60
2022/03/01 13:01:51;;;;;;;9.07;4.85;;;;;;;;;;5088428;28;20431;-56
2022/03/01 13:04:17;;;;;;;8.30;4.65;;;;;;;;;;5085420;28;20409;-58
2022/03/01 13:06:44;;;;;;;17.77;5.18;;;;;;;;;;5087616;28;20030;-56
2022/03/01 13:09:10;;;;;;;7.22;4.22;;;;;;;;;;5087799;28;20028;-54
2022/03/01 13:11:37;;;;;;;12.27;4.80;;;;;;;;;;5089201;28;20028;-56
2022/03/01 13:14:05;;;;;;;9.00;4.45;;;;;;;;;;5089004;28;20054;-57
2022/03/01 13:16:33;;;;;;;11.30;4.25;;;;;;;;;;5086616;28;20024;-59
2022/03/01 13:19:03;;;;;;;11.02;3.75;;;;;;;;;;5088585;28;20028;-57
2022/03/01 13:21:40;;;;;;;10.05;4.03;;;;;;;;;;5085095;28;20063;-55
2022/03/01 13:24:10;;;;;;;8.25;3.72;;;;;;;;;;5087243;28;20069;-57
2022/03/01 13:26:36;;;;;;;8.65;4.32;;;;;;;;;;5084378;28;20031;-60
2022/03/01 13:29:16;;;;;;;11.00;4.30;;;;;;;;;;5072372;28;20019;-59
2022/03/01 13:31:43;;;;;;;7.65;4.20;;;;;;;;;;5085653;28;20032;-60
2022/03/01 13:34:09;;;;;;;9.63;4.25;;;;;;;;;;5086782;28;20532;-60
2022/03/01 13:36:46;;;;;;;9.75;4.80;;;;;;;;;;5087249;28;20039;-59
2022/03/01 13:39:16;;;;;;;11.38;4.78;;;;;;;;;;5088586;28;20039;-61
2022/03/01 13:41:46;;;;;;;12.40;4.50;;;;;;;;;;5073350;28;20024;-59
2022/03/01 13:44:12;;;;;;;10.57;4.03;;;;;;;;;;5089156;28;20516;-58
2022/03/01 13:46:38;;;;;;;15.98;5.20;;;;;;;;;;5086857;28;20043;-59
2022/03/01 13:49:07;;;;;;;9.30;4.03;;;;;;;;;;5085505;28;20457;-57
2022/03/01 13:51:34;;;;;;;8.25;4.43;;;;;;;;;;5085895;28;20376;-59
2022/03/01 13:54:09;;;;;;;12.48;4.75;;;;;;;;;;5087347;28;20024;-61
2022/03/01 13:56:39;;;;;;;10.60;4.40;;;;;;;;;;5086747;28;20032;-58
2022/03/01 13:59:05;;;;;;;7.80;3.83;;;;;;;;;;5085898;28;20032;-59
2022/03/01 14:01:31;;;;;;;5.82;3.63;;;;;;;;;;5084036;28;20024;-59
2022/03/01 14:04:04;;;;;;;6.13;3.28;;;;;;;;;;5087080;28;20084;-58
2022/03/01 14:06:29;;;;;;;8.68;3.60;;;;;;;;;;5085596;28;20391;-60
2022/03/01 14:08:55;;;;;;;10.80;3.55;;;;;;;;;;5027405;28;21012;-60
2022/03/01 14:11:27;;;;;;;6.40;3.07;;;;;;;;;;501499;28;10022806;-58
2022/03/01 14:13:52;;;;;;;9.73;3.35;;;;;;;;;;5086127;28;20232;-58
2022/03/01 14:16:22;;;;;;;5.68;3.22;;;;;;;;;;5083769;28;20114;-58
2022/03/01 14:18:50;;;;;;;4.60;3.03;;;;;;;;;;5087569;28;20028;-59
2022/03/01 14:21:21;;;;;;;6.07;2.75;;;;;;;;;;5085553;28;20063;-58
2022/03/01 14:23:46;;;;;;;6.00;3.08;;;;;;;;;;5087333;28;20495;-58
2022/03/01 14:26:13;;;;;;;7.68;3.03;;;;;;;;;;5085923;28;20016;-60
2022/03/01 14:28:50;;;;;;;8.50;3.40;;;;;;;;;;5089645;28;20023;-61
2022/03/01 14:31:15;;;;;;;6.43;3.28;;;;;;;;;;5085640;28;20081;-58
2022/03/01 14:33:41;;;;;;;6.35;3.40;;;;;;;;;;5087644;28;20032;-61
2022/03/01 14:36:06;;;;;;;8.50;3.05;;;;;;;;;;5085969;28;20125;-58
2022/03/01 14:38:31;;;;;;;7.97;3.40;;;;;;;;;;5086483;28;20020;-58
2022/03/01 14:40:58;;;;;;;7.93;3.50;;;;;;;;;;5086274;28;20646;-61
2022/03/01 14:43:23;;;;;;;6.63;3.53;;;;;;;;;;5086397;28;20488;-57
2022/03/01 14:45:48;;;;;;;11.82;3.47;;;;;;;;;;5083665;28;20071;-58
2022/03/01 14:48:14;;;;;;;7.03;3.25;;;;;;;;;;5086261;28;20032;-59
2022/03/01 14:50:39;;;;;;;6.57;3.88;;;;;;;;;;5089237;28;20480;-59
2022/03/01 14:53:06;;;;;;;6.10;3.47;;;;;;;;;;5089367;28;20531;-59
2022/03/01 14:55:31;;;;;;;7.63;3.90;;;;;;;;;;5087555;28;20023;-57
2022/03/01 14:57:58;;;;;;;6.97;3.83;;;;;;;;;;5088871;28;20028;-60
2022/03/01 15:00:25;;;;;;;6.57;3.72;;;;;;;;;;5087984;28;20054;-58
2022/03/01 15:02:50;;;;;;;7.95;3.58;;;;;;;;;;5090958;28;20040;-61
2022/03/01 15:05:16;;;;;;;8.63;3.92;;;;;;;;;;5086870;28;20077;-60
2022/03/01 15:07:42;;;;;;;6.97;3.60;;;;;;;;;;5073854;28;20110;-59
2022/03/01 15:10:13;;;;;;;10.50;4.00;;;;;;;;;;5089612;28;20038;-60
2022/03/01 15:12:39;;;;;;;12.07;4.10;;;;;;;;;;5087460;28;20024;-58
2022/03/01 15:15:07;;;;;;;8.15;3.90;;;;;;;;;;5091547;28;20054;-60
2022/03/01 15:17:34;;;;;;;7.72;3.47;;;;;;;;;;5089052;28;20020;-60
2022/03/01 15:20:00;;;;;;;6.88;4.10;;;;;;;;;;5071421;28;20055;-59
2022/03/01 15:22:26;;;;;;;7.47;3.40;;;;;;;;;;5091076;28;20500;-60
2022/03/01 15:24:51;;;;;;;9.05;3.25;;;;;;;;;;5089609;28;20032;-58
2022/03/01 15:27:16;;;;;;;6.18;2.92;;;;;;;;;;5089884;28;20031;-55
2022/03/01 15:29:42;;;;;;;8.57;3.47;;;;;;;;;;5088656;28;20118;-58
2022/03/01 15:32:08;;;;;;;6.78;3.72;;;;;;;;;;5086380;28;20059;-58
2022/03/01 15:34:33;;;;;;;5.63;3.60;;;;;;;;;;5089055;28;20381;-58
2022/03/01 15:36:59;;;;;;;6.43;3.47;;;;;;;;;;5073977;28;20457;-59
2022/03/01 15:39:25;;;;;;;8.18;3.58;;;;;;;;;;5090040;28;20138;-58
2022/03/01 15:41:50;;;;;;;6.32;3.38;;;;;;;;;;5089763;28;20388;-58
2022/03/01 15:44:17;;;;;;;5.65;3.50;;;;;;;;;;5088609;28;20032;-59
2022/03/01 15:46:42;;;;;;;6.20;3.25;;;;;;;;;;5087534;28;20475;-60
2022/03/01 15:49:08;;;;;;;5.80;3.58;;;;;;;;;;5090532;28;20028;-57
2022/03/01 15:51:34;;;;;;;6.45;3.55;;;;;;;;;;5089524;28;20042;-57
2022/03/01 15:54:01;;;;;;;7.70;3.80;;;;;;;;;;5088392;28;20035;-59
2022/03/01 15:56:31;;;;;;;6.88;3.55;;;;;;;;;;5088589;28;20039;-59
2022/03/01 15:58:57;;;;;;;7.80;4.05;;;;;;;;;;5091774;28;20036;-59
2022/03/01 16:01:23;;;;;;;8.02;3.75;;;;;;;;;;5069523;28;20330;-58